sensor_id;sensor_type;location;lat;lon;timestamp;pressure;altitude;pressure_sealevel;temperature;humidity
75192;BME280;63771;52.580;9.734;2022-11-14T00:02:11;101680.97;;;6.45;89.35
75192;BME280;63771;52.580;9.734;2022-11-14T00:04:36;101683.16;;;6.42;89.10
75192;BME280;63771;52.580;9.734;2022-11-14T00:07:01;101676.66;;;6.37;89.55
75192;BME280;63771;52.580;9.734;2022-11-14T00:09:28;101683.50;;;6.45;89.58
75192;BME280;63771;52.580;9.734;2022-11-14T00:11:54;101673.00;;;6.42;89.39
75192;BME280;63771;52.580;9.734;2022-11-14T00:14:19;101682.19;;;6.56;89.02
75192;BME280;63771;52.580;9.734;2022-11-14T00:16:45;101668.31;;;6.45;88.94
75192;BME280;63771;52.580;9.734;2022-11-14T00:19:11;101674.66;;;6.41;89.53
75192;BME280;63771;52.580;9.734;2022-11-14T00:21:36;101675.00;;;6.44;89.29
75192;BME280;63771;52.580;9.734;2022-11-14T00:24:02;101677.19;;;6.41;89.31
75192;BME280;63771;52.580;9.734;2022-11-14T00:26:27;101666.88;;;6.40;89.19
75192;BME280;63771;52.580;9.734;2022-11-14T00:28:53;101669.19;;;6.45;89.18
75192;BME280;63771;52.580;9.734;2022-11-14T00:31:19;101654.88;;;6.46;89.03
75192;BME280;63771;52.580;9.734;2022-11-14T00:33:44;101665.94;;;6.46;88.72
75192;BME280;63771;52.580;9.734;2022-11-14T00:36:10;101663.06;;;6.43;89.41
75192;BME280;63771;52.580;9.734;2022-11-14T00:38:35;101661.91;;;6.56;88.23
75192;BME280;63771;52.580;9.734;2022-11-14T00:41:00;101643.69;;;6.44;88.49
75192;BME280;63771;52.580;9.734;2022-11-14T00:43:26;101658.91;;;6.44;88.65
75192;BME280;63771;52.580;9.734;2022-11-14T00:45:51;101649.09;;;6.47;88.41
75192;BME280;63771;52.580;9.734;2022-11-14T00:48:16;101640.41;;;6.45;88.10
75192;BME280;63771;52.580;9.734;2022-11-14T00:50:42;101645.50;;;6.45;88.18
75192;BME280;63771;52.580;9.734;2022-11-14T00:53:07;101642.75;;;6.50;87.72
75192;BME280;63771;52.580;9.734;2022-11-14T00:55:33;101641.47;;;6.47;87.68
75192;BME280;63771;52.580;9.734;2022-11-14T00:57:58;101643.53;;;6.42;88.20
75192;BME280;63771;52.580;9.734;2022-11-14T01:00:24;101624.75;;;6.33;88.17
75192;BME280;63771;52.580;9.734;2022-11-14T01:02:49;101640.63;;;6.39;88.31
75192;BME280;63771;52.580;9.734;2022-11-14T01:05:14;101643.16;;;6.39;88.44
75192;BME280;63771;52.580;9.734;2022-11-14T01:07:39;101645.53;;;6.38;88.55
75192;BME280;63771;52.580;9.734;2022-11-14T01:10:05;101634.66;;;6.39;88.21
75192;BME280;63771;52.580;9.734;2022-11-14T01:12:32;101630.34;;;6.38;88.37
75192;BME280;63771;52.580;9.734;2022-11-14T01:14:58;101635.19;;;6.43;87.97
75192;BME280;63771;52.580;9.734;2022-11-14T01:17:23;101628.31;;;6.42;88.11
75192;BME280;63771;52.580;9.734;2022-11-14T01:19:49;101618.66;;;6.54;87.52
75192;BME280;63771;52.580;9.734;2022-11-14T01:22:14;101609.63;;;6.49;87.76
75192;BME280;63771;52.580;9.734;2022-11-14T01:24:40;101612.16;;;6.49;87.51
75192;BME280;63771;52.580;9.734;2022-11-14T01:27:05;101612.53;;;6.45;87.85
75192;BME280;63771;52.580;9.734;2022-11-14T01:29:30;101608.94;;;6.43;87.85
75192;BME280;63771;52.580;9.734;2022-11-14T01:31:55;101604.56;;;6.42;87.77
75192;BME280;63771;52.580;9.734;2022-11-14T01:34:21;101605.31;;;6.41;87.86
75192;BME280;63771;52.580;9.734;2022-11-14T01:36:47;101598.00;;;6.51;87.73
75192;BME280;63771;52.580;9.734;2022-11-14T01:39:12;101595.31;;;6.49;87.18
75192;BME280;63771;52.580;9.734;2022-11-14T01:41:38;101593.00;;;6.44;87.48
75192;BME280;63771;52.580;9.734;2022-11-14T01:44:11;101594.75;;;6.52;87.31
75192;BME280;63771;52.580;9.734;2022-11-14T01:46:39;101588.59;;;6.50;86.96
75192;BME280;63771;52.580;9.734;2022-11-14T01:49:17;101583.47;;;6.57;86.87
75192;BME280;63771;52.580;9.734;2022-11-14T01:51:48;101576.28;;;6.53;86.95
75192;BME280;63771;52.580;9.734;2022-11-14T01:54:29;101582.56;;;6.57;86.74
75192;BME280;63771;52.580;9.734;2022-11-14T01:57:02;101573.00;;;6.54;87.20
75192;BME280;63771;52.580;9.734;2022-11-14T01:59:30;101569.91;;;6.57;85.84
75192;BME280;63771;52.580;9.734;2022-11-14T02:02:01;101565.03;;;6.58;86.65
75192;BME280;63771;52.580;9.734;2022-11-14T02:04:30;101572.63;;;6.58;86.48
75192;BME280;63771;52.580;9.734;2022-11-14T02:07:00;101561.75;;;6.59;86.72
75192;BME280;63771;52.580;9.734;2022-11-14T02:09:29;101562.50;;;6.58;86.76
75192;BME280;63771;52.580;9.734;2022-11-14T02:11:57;101560.34;;;6.54;86.75
75192;BME280;63771;52.580;9.734;2022-11-14T02:14:24;101560.19;;;6.52;87.19
75192;BME280;63771;52.580;9.734;2022-11-14T02:16:50;101558.88;;;6.56;86.89
75192;BME280;63771;52.580;9.734;2022-11-14T02:19:16;101542.44;;;6.52;87.07
75192;BME280;63771;52.580;9.734;2022-11-14T02:21:41;101542.63;;;6.47;87.16
75192;BME280;63771;52.580;9.734;2022-11-14T02:24:09;101540.97;;;6.54;87.15
75192;BME280;63771;52.580;9.734;2022-11-14T02:26:34;101537.91;;;6.50;86.80
75192;BME280;63771;52.580;9.734;2022-11-14T02:29:00;101535.38;;;6.50;86.96
75192;BME280;63771;52.580;9.734;2022-11-14T02:31:25;101535.72;;;6.53;86.97
75192;BME280;63771;52.580;9.734;2022-11-14T02:33:51;101527.00;;;6.58;86.84
75192;BME280;63771;52.580;9.734;2022-11-14T02:36:16;101529.94;;;6.54;86.44
75192;BME280;63771;52.580;9.734;2022-11-14T02:38:41;101536.22;;;6.58;86.75
75192;BME280;63771;52.580;9.734;2022-11-14T02:41:07;101534.09;;;6.53;86.76
75192;BME280;63771;52.580;9.734;2022-11-14T02:43:32;101530.09;;;6.56;86.87
75192;BME280;63771;52.580;9.734;2022-11-14T02:45:57;101528.06;;;6.60;86.81
75192;BME280;63771;52.580;9.734;2022-11-14T02:48:23;101525.00;;;6.56;86.72
75192;BME280;63771;52.580;9.734;2022-11-14T02:50:48;101531.72;;;6.55;86.81
75192;BME280;63771;52.580;9.734;2022-11-14T02:53:14;101522.59;;;6.64;86.35
75192;BME280;63771;52.580;9.734;2022-11-14T02:55:39;101521.19;;;6.59;86.48
75192;BME280;63771;52.580;9.734;2022-11-14T02:58:05;101519.03;;;6.55;86.82
75192;BME280;63771;52.580;9.734;2022-11-14T03:00:30;101514.59;;;6.68;85.51
75192;BME280;63771;52.580;9.734;2022-11-14T03:02:55;101525.69;;;6.62;86.19
75192;BME280;63771;52.580;9.734;2022-11-14T03:05:21;101520.06;;;6.64;85.93
75192;BME280;63771;52.580;9.734;2022-11-14T03:07:46;101515.78;;;6.56;86.16
75192;BME280;63771;52.580;9.734;2022-11-14T03:10:12;101517.56;;;6.57;86.49
75192;BME280;63771;52.580;9.734;2022-11-14T03:12:38;101507.44;;;6.57;86.00
75192;BME280;63771;52.580;9.734;2022-11-14T03:15:05;101510.69;;;6.56;86.41
75192;BME280;63771;52.580;9.734;2022-11-14T03:17:32;101482.53;;;6.46;86.34
75192;BME280;63771;52.580;9.734;2022-11-14T03:19:58;101500.00;;;6.59;86.31
75192;BME280;63771;52.580;9.734;2022-11-14T03:22:24;101505.59;;;6.63;86.13
75192;BME280;63771;52.580;9.734;2022-11-14T03:24:49;101499.19;;;6.67;86.11
75192;BME280;63771;52.580;9.734;2022-11-14T03:27:14;101498.88;;;6.64;85.83
75192;BME280;63771;52.580;9.734;2022-11-14T03:29:40;101478.09;;;6.59;85.56
75192;BME280;63771;52.580;9.734;2022-11-14T03:32:05;101488.56;;;6.62;86.10
75192;BME280;63771;52.580;9.734;2022-11-14T03:34:30;101480.16;;;6.70;85.95
75192;BME280;63771;52.580;9.734;2022-11-14T03:36:56;101473.34;;;6.62;86.09
75192;BME280;63771;52.580;9.734;2022-11-14T03:39:21;101486.38;;;6.65;86.00
75192;BME280;63771;52.580;9.734;2022-11-14T03:41:46;101474.97;;;6.62;86.31
75192;BME280;63771;52.580;9.734;2022-11-14T03:44:12;101469.00;;;6.61;85.93
75192;BME280;63771;52.580;9.734;2022-11-14T03:46:37;101466.56;;;6.54;86.21
75192;BME280;63771;52.580;9.734;2022-11-14T03:49:03;101480.28;;;6.56;86.56
75192;BME280;63771;52.580;9.734;2022-11-14T03:51:28;101478.84;;;6.58;86.31
75192;BME280;63771;52.580;9.734;2022-11-14T03:53:53;101475.78;;;6.53;86.49
75192;BME280;63771;52.580;9.734;2022-11-14T03:56:19;101468.00;;;6.52;86.32
75192;BME280;63771;52.580;9.734;2022-11-14T03:58:44;101463.34;;;6.48;86.61
75192;BME280;63771;52.580;9.734;2022-11-14T04:01:09;101463.16;;;6.46;86.69
75192;BME280;63771;52.580;9.734;2022-11-14T04:03:34;101460.81;;;6.48;86.49
75192;BME280;63771;52.580;9.734;2022-11-14T04:06:00;101465.69;;;6.46;86.92
75192;BME280;63771;52.580;9.734;2022-11-14T04:08:25;101457.84;;;6.52;86.85
75192;BME280;63771;52.580;9.734;2022-11-14T04:10:51;101456.41;;;6.54;86.79
75192;BME280;63771;52.580;9.734;2022-11-14T04:13:16;101458.59;;;6.51;86.63
75192;BME280;63771;52.580;9.734;2022-11-14T04:15:41;101451.00;;;6.51;86.86
75192;BME280;63771;52.580;9.734;2022-11-14T04:18:06;101442.66;;;6.52;86.76
75192;BME280;63771;52.580;9.734;2022-11-14T04:20:32;101433.66;;;6.47;86.77
75192;BME280;63771;52.580;9.734;2022-11-14T04:22:57;101426.97;;;6.47;86.75
75192;BME280;63771;52.580;9.734;2022-11-14T04:25:23;101422.44;;;6.45;86.68
75192;BME280;63771;52.580;9.734;2022-11-14T04:27:48;101429.50;;;6.47;86.77
75192;BME280;63771;52.580;9.734;2022-11-14T04:30:13;101423.50;;;6.47;86.44
75192;BME280;63771;52.580;9.734;2022-11-14T04:32:39;101409.78;;;6.45;85.89
75192;BME280;63771;52.580;9.734;2022-11-14T04:35:04;101422.38;;;6.52;86.51
75192;BME280;63771;52.580;9.734;2022-11-14T04:37:30;101409.38;;;6.49;86.29
75192;BME280;63771;52.580;9.734;2022-11-14T04:39:55;101408.66;;;6.50;86.04
75192;BME280;63771;52.580;9.734;2022-11-14T04:42:25;101412.31;;;6.45;86.44
75192;BME280;63771;52.580;9.734;2022-11-14T04:44:50;101421.56;;;6.44;86.71
75192;BME280;63771;52.580;9.734;2022-11-14T04:47:15;101410.00;;;6.39;86.52
75192;BME280;63771;52.580;9.734;2022-11-14T04:49:41;101424.97;;;6.45;86.40
75192;BME280;63771;52.580;9.734;2022-11-14T04:52:06;101417.88;;;6.49;86.59
75192;BME280;63771;52.580;9.734;2022-11-14T04:54:31;101419.91;;;6.45;86.71
75192;BME280;63771;52.580;9.734;2022-11-14T04:56:57;101423.34;;;6.45;87.18
75192;BME280;63771;52.580;9.734;2022-11-14T04:59:22;101411.56;;;6.46;86.84
75192;BME280;63771;52.580;9.734;2022-11-14T05:01:47;101420.25;;;6.48;86.88
75192;BME280;63771;52.580;9.734;2022-11-14T05:04:13;101414.50;;;6.42;87.22
75192;BME280;63771;52.580;9.734;2022-11-14T05:06:38;101418.66;;;6.41;87.74
75192;BME280;63771;52.580;9.734;2022-11-14T05:09:03;101405.34;;;6.35;87.79
75192;BME280;63771;52.580;9.734;2022-11-14T05:11:29;101402.63;;;6.34;87.14
75192;BME280;63771;52.580;9.734;2022-11-14T05:13:54;101412.31;;;6.45;87.11
75192;BME280;63771;52.580;9.734;2022-11-14T05:16:19;101415.84;;;6.54;86.66
75192;BME280;63771;52.580;9.734;2022-11-14T05:18:45;101403.03;;;6.52;85.95
75192;BME280;63771;52.580;9.734;2022-11-14T05:21:14;101407.97;;;6.44;86.50
75192;BME280;63771;52.580;9.734;2022-11-14T05:23:39;101394.97;;;6.41;86.59
75192;BME280;63771;52.580;9.734;2022-11-14T05:26:06;101407.47;;;6.39;87.02
75192;BME280;63771;52.580;9.734;2022-11-14T05:28:33;101396.09;;;6.36;87.35
75192;BME280;63771;52.580;9.734;2022-11-14T05:31:03;101396.94;;;6.43;86.32
75192;BME280;63771;52.580;9.734;2022-11-14T05:33:29;101391.69;;;6.42;86.23
75192;BME280;63771;52.580;9.734;2022-11-14T05:35:54;101383.19;;;6.41;86.37
75192;BME280;63771;52.580;9.734;2022-11-14T05:38:20;101373.13;;;6.34;86.52
75192;BME280;63771;52.580;9.734;2022-11-14T05:40:45;101371.59;;;6.43;86.95
75192;BME280;63771;52.580;9.734;2022-11-14T05:43:11;101370.72;;;6.43;86.94
75192;BME280;63771;52.580;9.734;2022-11-14T05:45:36;101379.00;;;6.42;86.73
75192;BME280;63771;52.580;9.734;2022-11-14T05:48:01;101378.13;;;6.41;86.69
75192;BME280;63771;52.580;9.734;2022-11-14T05:50:27;101379.00;;;6.42;86.74
75192;BME280;63771;52.580;9.734;2022-11-14T05:52:53;101375.31;;;6.54;86.38
75192;BME280;63771;52.580;9.734;2022-11-14T05:55:18;101373.56;;;6.46;86.36
75192;BME280;63771;52.580;9.734;2022-11-14T05:57:44;101387.03;;;6.38;86.47
75192;BME280;63771;52.580;9.734;2022-11-14T06:00:09;101387.03;;;6.38;86.83
75192;BME280;63771;52.580;9.734;2022-11-14T06:02:35;101390.13;;;6.35;87.20
75192;BME280;63771;52.580;9.734;2022-11-14T06:05:00;101383.13;;;6.33;87.35
75192;BME280;63771;52.580;9.734;2022-11-14T06:07:26;101375.91;;;6.28;87.30
75192;BME280;63771;52.580;9.734;2022-11-14T06:09:51;101384.91;;;6.34;87.15
75192;BME280;63771;52.580;9.734;2022-11-14T06:12:16;101383.81;;;6.32;87.16
75192;BME280;63771;52.580;9.734;2022-11-14T06:14:42;101377.69;;;6.30;87.17
75192;BME280;63771;52.580;9.734;2022-11-14T06:17:07;101381.13;;;6.30;87.36
75192;BME280;63771;52.580;9.734;2022-11-14T06:19:32;101380.88;;;6.36;86.62
75192;BME280;63771;52.580;9.734;2022-11-14T06:21:58;101382.53;;;6.35;86.17
75192;BME280;63771;52.580;9.734;2022-11-14T06:24:23;101382.13;;;6.39;86.06
75192;BME280;63771;52.580;9.734;2022-11-14T06:26:49;101386.69;;;6.35;86.16
75192;BME280;63771;52.580;9.734;2022-11-14T06:29:14;101380.97;;;6.28;86.55
75192;BME280;63771;52.580;9.734;2022-11-14T06:31:39;101383.13;;;6.33;85.97
75192;BME280;63771;52.580;9.734;2022-11-14T06:34:05;101384.00;;;6.33;86.40
75192;BME280;63771;52.580;9.734;2022-11-14T06:36:30;101389.63;;;6.31;86.24
75192;BME280;63771;52.580;9.734;2022-11-14T06:38:55;101390.22;;;6.28;86.62
75192;BME280;63771;52.580;9.734;2022-11-14T06:41:21;101391.84;;;6.27;86.73
75192;BME280;63771;52.580;9.734;2022-11-14T06:43:48;101394.66;;;6.38;86.09
75192;BME280;63771;52.580;9.734;2022-11-14T06:46:16;101384.91;;;6.34;85.78
75192;BME280;63771;52.580;9.734;2022-11-14T06:48:43;101386.03;;;6.28;86.48
75192;BME280;63771;52.580;9.734;2022-11-14T06:51:10;101378.09;;;6.25;86.43
75192;BME280;63771;52.580;9.734;2022-11-14T06:53:35;101375.66;;;6.34;85.55
75192;BME280;63771;52.580;9.734;2022-11-14T06:56:09;101374.78;;;6.34;85.53
75192;BME280;63771;52.580;9.734;2022-11-14T06:58:40;101377.69;;;6.30;86.03
75192;BME280;63771;52.580;9.734;2022-11-14T07:01:16;101371.97;;;6.23;86.30
75192;BME280;63771;52.580;9.734;2022-11-14T07:03:43;101374.41;;;6.31;85.85
75192;BME280;63771;52.580;9.734;2022-11-14T07:06:11;101362.72;;;6.24;86.07
75192;BME280;63771;52.580;9.734;2022-11-14T07:08:37;101365.50;;;6.18;86.28
75192;BME280;63771;52.580;9.734;2022-11-14T07:11:16;101368.03;;;6.18;86.39
75192;BME280;63771;52.580;9.734;2022-11-14T07:13:50;101376.19;;;6.16;86.62
75192;BME280;63771;52.580;9.734;2022-11-14T07:16:17;101377.09;;;6.16;86.72
75192;BME280;63771;52.580;9.734;2022-11-14T07:18:42;101373.47;;;6.14;86.64
75192;BME280;63771;52.580;9.734;2022-11-14T07:21:07;101375.47;;;6.17;86.67
75192;BME280;63771;52.580;9.734;2022-11-14T07:23:33;101372.75;;;6.15;86.49
75192;BME280;63771;52.580;9.734;2022-11-14T07:26:04;101368.78;;;6.17;86.61
75192;BME280;63771;52.580;9.734;2022-11-14T07:28:38;101361.91;;;6.16;86.63
75192;BME280;63771;52.580;9.734;2022-11-14T07:31:11;101373.09;;;6.18;86.81
75192;BME280;63771;52.580;9.734;2022-11-14T07:33:37;101375.78;;;6.20;86.90
75192;BME280;63771;52.580;9.734;2022-11-14T07:36:04;101377.94;;;6.24;86.94
75192;BME280;63771;52.580;9.734;2022-11-14T07:38:30;101380.06;;;6.28;86.57
75192;BME280;63771;52.580;9.734;2022-11-14T07:40:58;101373.38;;;6.28;86.07
75192;BME280;63771;52.580;9.734;2022-11-14T07:43:24;101371.06;;;6.23;86.21
75192;BME280;63771;52.580;9.734;2022-11-14T07:45:50;101373.44;;;6.21;86.32
75192;BME280;63771;52.580;9.734;2022-11-14T07:48:15;101380.31;;;6.22;86.38
75192;BME280;63771;52.580;9.734;2022-11-14T07:50:41;101386.13;;;6.21;86.27
75192;BME280;63771;52.580;9.734;2022-11-14T07:53:07;101374.00;;;6.19;86.34
75192;BME280;63771;52.580;9.734;2022-11-14T07:55:36;101361.91;;;6.16;86.18
75192;BME280;63771;52.580;9.734;2022-11-14T07:58:02;101359.03;;;6.13;86.41
75192;BME280;63771;52.580;9.734;2022-11-14T08:00:28;101354.63;;;6.19;86.21
75192;BME280;63771;52.580;9.734;2022-11-14T08:02:53;101365.66;;;6.20;86.14
75192;BME280;63771;52.580;9.734;2022-11-14T08:05:19;101364.00;;;6.20;85.99
75192;BME280;63771;52.580;9.734;2022-11-14T08:07:44;101370.16;;;6.22;85.88
75192;BME280;63771;52.580;9.734;2022-11-14T08:10:10;101378.50;;;6.21;86.14
75192;BME280;63771;52.580;9.734;2022-11-14T08:12:37;101373.44;;;6.21;85.77
75192;BME280;63771;52.580;9.734;2022-11-14T08:15:08;101374.34;;;6.22;86.07
75192;BME280;63771;52.580;9.734;2022-11-14T08:17:34;101379.41;;;6.22;85.95
75192;BME280;63771;52.580;9.734;2022-11-14T08:19:59;101373.09;;;6.18;86.27
75192;BME280;63771;52.580;9.734;2022-11-14T08:22:24;101365.50;;;6.18;86.20
75192;BME280;63771;52.580;9.734;2022-11-14T08:24:50;101376.88;;;6.22;86.09
75192;BME280;63771;52.580;9.734;2022-11-14T08:27:15;101373.75;;;6.24;86.18
75192;BME280;63771;52.580;9.734;2022-11-14T08:29:41;101370.47;;;6.25;86.21
75192;BME280;63771;52.580;9.734;2022-11-14T08:32:06;101347.75;;;6.18;86.13
75192;BME280;63771;52.580;9.734;2022-11-14T08:34:31;101368.47;;;6.30;85.92
75192;BME280;63771;52.580;9.734;2022-11-14T08:36:57;101358.09;;;6.36;85.89
75192;BME280;63771;52.580;9.734;2022-11-14T08:39:23;101359.56;;;6.34;85.49
75192;BME280;63771;52.580;9.734;2022-11-14T08:41:48;101362.84;;;6.33;85.38
75192;BME280;63771;52.580;9.734;2022-11-14T08:44:13;101355.94;;;6.32;85.23
75192;BME280;63771;52.580;9.734;2022-11-14T08:46:39;101366.06;;;6.32;85.94
75192;BME280;63771;52.580;9.734;2022-11-14T08:49:04;101355.06;;;6.31;85.76
75192;BME280;63771;52.580;9.734;2022-11-14T08:51:29;101368.81;;;6.33;85.64
75192;BME280;63771;52.580;9.734;2022-11-14T08:53:55;101358.66;;;6.33;86.02
75192;BME280;63771;52.580;9.734;2022-11-14T08:56:20;101376.56;;;6.35;86.00
75192;BME280;63771;52.580;9.734;2022-11-14T08:58:45;101368.22;;;6.36;86.10
75192;BME280;63771;52.580;9.734;2022-11-14T09:01:11;101368.41;;;6.37;85.99
75192;BME280;63771;52.580;9.734;2022-11-14T09:03:36;101350.56;;;6.28;85.84
75192;BME280;63771;52.580;9.734;2022-11-14T09:06:01;101365.13;;;6.38;85.95
75192;BME280;63771;52.580;9.734;2022-11-14T09:08:28;101368.72;;;6.40;85.99
75192;BME280;63771;52.580;9.734;2022-11-14T09:10:53;101372.16;;;6.41;85.83
75192;BME280;63771;52.580;9.734;2022-11-14T09:13:18;101366.94;;;6.39;86.06
75192;BME280;63771;52.580;9.734;2022-11-14T09:15:44;101357.28;;;6.44;85.64
75192;BME280;63771;52.580;9.734;2022-11-14T09:18:10;101358.94;;;6.43;85.66
75192;BME280;63771;52.580;9.734;2022-11-14T09:20:35;101356.41;;;6.43;85.25
75192;BME280;63771;52.580;9.734;2022-11-14T09:23:01;101351.97;;;6.49;85.80
75192;BME280;63771;52.580;9.734;2022-11-14T09:25:28;101337.66;;;6.50;85.19
75192;BME280;63771;52.580;9.734;2022-11-14T09:27:53;101348.16;;;6.53;85.25
75192;BME280;63771;52.580;9.734;2022-11-14T09:30:19;101340.56;;;6.53;85.86
75192;BME280;63771;52.580;9.734;2022-11-14T09:32:44;101344.88;;;6.54;85.74
75192;BME280;63771;52.580;9.734;2022-11-14T09:35:09;101344.88;;;6.54;85.66
75192;BME280;63771;52.580;9.734;2022-11-14T09:37:37;101339.81;;;6.54;85.44
75192;BME280;63771;52.580;9.734;2022-11-14T09:40:02;101337.59;;;6.57;85.57
75192;BME280;63771;52.580;9.734;2022-11-14T09:45:22;101349.13;;;6.62;85.56
75192;BME280;63771;52.580;9.734;2022-11-14T09:47:52;101342.59;;;6.64;85.52
75192;BME280;63771;52.580;9.734;2022-11-14T09:50:32;101356.31;;;6.66;85.53
75192;BME280;63771;52.580;9.734;2022-11-14T09:53:15;101340.56;;;6.69;85.41
75192;BME280;63771;52.580;9.734;2022-11-14T09:55:44;101343.41;;;6.72;85.51
75192;BME280;63771;52.580;9.734;2022-11-14T09:58:16;101337.94;;;6.76;85.48
75192;BME280;63771;52.580;9.734;2022-11-14T10:00:49;101337.53;;;6.80;85.43
75192;BME280;63771;52.580;9.734;2022-11-14T10:11:31;101294.81;;;6.92;84.34
75192;BME280;63771;52.580;9.734;2022-11-14T10:14:26;101305.28;;;6.95;84.01
75192;BME280;63771;52.580;9.734;2022-11-14T10:17:06;101287.09;;;6.99;83.46
75192;BME280;63771;52.580;9.734;2022-11-14T10:28:43;101261.22;;;7.10;83.37
75192;BME280;63771;52.580;9.734;2022-11-14T10:33:55;101254.81;;;7.14;83.36
75192;BME280;63771;52.580;9.734;2022-11-14T10:39:22;101249.47;;;7.19;83.23
75192;BME280;63771;52.580;9.734;2022-11-14T10:41:51;101248.00;;;7.21;83.12
75192;BME280;63771;52.580;9.734;2022-11-14T10:44:23;101255.91;;;7.24;82.98
75192;BME280;63771;52.580;9.734;2022-11-14T10:46:53;101259.53;;;7.26;83.06
75192;BME280;63771;52.580;9.734;2022-11-14T10:49:22;101268.19;;;7.28;83.41
75192;BME280;63771;52.580;9.734;2022-11-14T10:52:03;101253.28;;;7.31;83.03
75192;BME280;63771;52.580;9.734;2022-11-14T10:54:54;101264.63;;;7.35;83.00
75192;BME280;63771;52.580;9.734;2022-11-14T10:57:21;101268.06;;;7.36;82.89
75192;BME280;63771;52.580;9.734;2022-11-14T10:59:47;101261.25;;;7.43;82.43
75192;BME280;63771;52.580;9.734;2022-11-14T11:02:13;101246.78;;;7.42;82.62
75192;BME280;63771;52.580;9.734;2022-11-14T11:04:43;101253.03;;;7.46;82.52
75192;BME280;63771;52.580;9.734;2022-11-14T11:09:38;101244.44;;;7.52;82.12
75192;BME280;63771;52.580;9.734;2022-11-14T11:12:37;101242.94;;;7.54;81.66
75192;BME280;63771;52.580;9.734;2022-11-14T11:16:01;101242.94;;;7.54;81.62
75192;BME280;63771;52.580;9.734;2022-11-14T11:18:31;101250.56;;;7.54;82.76
75192;BME280;63771;52.580;9.734;2022-11-14T11:21:10;101226.69;;;7.61;82.59
75192;BME280;63771;52.580;9.734;2022-11-14T11:23:47;101246.56;;;7.65;82.35
75192;BME280;63771;52.580;9.734;2022-11-14T11:26:31;101235.84;;;7.68;82.69
75192;BME280;63771;52.580;9.734;2022-11-14T11:29:06;101226.31;;;7.74;82.23
75192;BME280;63771;52.580;9.734;2022-11-14T11:31:53;101236.03;;;7.78;82.18
75192;BME280;63771;52.580;9.734;2022-11-14T11:34:23;101229.91;;;7.84;81.98
75192;BME280;63771;52.580;9.734;2022-11-14T11:36:54;101222.47;;;7.95;80.49
75192;BME280;63771;52.580;9.734;2022-11-14T11:39:31;101228.56;;;7.88;80.80
75192;BME280;63771;52.580;9.734;2022-11-14T11:42:01;101236.81;;;8.03;80.30
75192;BME280;63771;52.580;9.734;2022-11-14T11:44:34;101235.66;;;7.99;80.96
75192;BME280;63771;52.580;9.734;2022-11-14T11:47:03;101238.66;;;8.04;81.87
75192;BME280;63771;52.580;9.734;2022-11-14T11:55:14;101223.09;;;8.18;81.88
75192;BME280;63771;52.580;9.734;2022-11-14T11:57:52;101208.63;;;8.17;81.49
75192;BME280;63771;52.580;9.734;2022-11-14T12:00:22;101206.66;;;8.23;81.20
75192;BME280;63771;52.580;9.734;2022-11-14T12:02:49;101211.19;;;8.26;81.32
75192;BME280;63771;52.580;9.734;2022-11-14T12:05:17;101201.00;;;8.26;81.06
75192;BME280;63771;52.580;9.734;2022-11-14T12:08:00;101199.22;;;8.25;80.67
75192;BME280;63771;52.580;9.734;2022-11-14T12:10:29;101182.75;;;8.21;80.80
75192;BME280;63771;52.580;9.734;2022-11-14T12:19:00;101203.22;;;8.14;81.31
75192;BME280;63771;52.580;9.734;2022-11-14T12:27:28;101200.66;;;8.14;81.09
75192;BME280;63771;52.580;9.734;2022-11-14T12:35:28;101184.38;;;8.12;81.57
75192;BME280;63771;52.580;9.734;2022-11-14T12:37:56;101185.59;;;8.24;80.73
75192;BME280;63771;52.580;9.734;2022-11-14T12:42:53;101177.81;;;8.23;80.90
75192;BME280;63771;52.580;9.734;2022-11-14T12:50:50;101176.59;;;8.19;81.38
75192;BME280;63771;52.580;9.734;2022-11-14T12:58:43;101184.88;;;8.25;81.66
75192;BME280;63771;52.580;9.734;2022-11-14T13:01:23;101171.25;;;8.25;81.50
75192;BME280;63771;52.580;9.734;2022-11-14T13:07:32;101159.16;;;8.31;81.39
75192;BME280;63771;52.580;9.734;2022-11-14T13:10:23;101148.28;;;8.41;80.24
75192;BME280;63771;52.580;9.734;2022-11-14T13:13:10;101153.50;;;8.42;79.96
75192;BME280;63771;52.580;9.734;2022-11-14T13:15:58;101152.28;;;8.39;80.18
75192;BME280;63771;52.580;9.734;2022-11-14T13:27:31;101129.09;;;8.44;79.55
75192;BME280;63771;52.580;9.734;2022-11-14T13:29:58;101135.84;;;8.44;79.28
75192;BME280;63771;52.580;9.734;2022-11-14T13:35:19;101128.50;;;8.38;80.28
75192;BME280;63771;52.580;9.734;2022-11-14T13:46:33;101123.56;;;8.40;80.02
75192;BME280;63771;52.580;9.734;2022-11-14T13:49:17;101120.31;;;8.41;80.23
75192;BME280;63771;52.580;9.734;2022-11-14T13:51:50;101125.97;;;8.38;80.23
75192;BME280;63771;52.580;9.734;2022-11-14T13:54:16;101102.03;;;8.27;80.16
75192;BME280;63771;52.580;9.734;2022-11-14T13:56:55;101117.84;;;8.33;80.09
75192;BME280;63771;52.580;9.734;2022-11-14T14:10:23;101115.22;;;8.41;78.90
75192;BME280;63771;52.580;9.734;2022-11-14T14:15:53;101109.19;;;8.31;79.90
75192;BME280;63771;52.580;9.734;2022-11-14T14:23:52;101104.41;;;8.26;80.63
75192;BME280;63771;52.580;9.734;2022-11-14T14:29:31;101096.50;;;8.23;80.19
75192;BME280;63771;52.580;9.734;2022-11-14T14:32:19;101094.69;;;8.22;80.34
75192;BME280;63771;52.580;9.734;2022-11-14T14:34:45;101090.19;;;8.19;80.64
75192;BME280;63771;52.580;9.734;2022-11-14T14:37:22;101088.41;;;8.18;80.64
75192;BME280;63771;52.580;9.734;2022-11-14T14:39:58;101088.84;;;8.14;80.91
75192;BME280;63771;52.580;9.734;2022-11-14T14:42:24;101083.50;;;8.11;80.59
75192;BME280;63771;52.580;9.734;2022-11-14T14:44:50;101088.56;;;8.11;80.69
75192;BME280;63771;52.580;9.734;2022-11-14T14:47:29;101083.19;;;8.08;81.09
75192;BME280;63771;52.580;9.734;2022-11-14T14:50:04;101075.28;;;8.05;81.08
75192;BME280;63771;52.580;9.734;2022-11-14T14:52:32;101068.09;;;8.01;81.30
75192;BME280;63771;52.580;9.734;2022-11-14T14:54:58;101079.59;;;7.97;81.68
75192;BME280;63771;52.580;9.734;2022-11-14T14:57:26;101068.25;;;7.94;81.67